Rp Zug — HE7351 — position and weather

sailwx.info

Track history (hours):
 
Tides and Currents Weather Stations Pressure Air Temp Water Temp Dewpoint Dewpoint Depression Visibility Wind Speed Wind Dir Waves Ship Positions

Rp Zug

Last reported at 2016-Aug-30 20:33 UTC. Time now 2016-Aug-30 20:55 UTC.
Position N 49°04' E 008°20'.

Length 110 m; draft 1.7 m.

Type: Tanker. MMSI: 269057351.

Date/timePositionNaut miles runAvg speedWind from/ knotsBaromVisibWave heightAir tempDewpointWater temp
2016-Aug-30 20:33N 49°04' E 008°20'0 0.0
2016-Aug-30 19:21N 49°04' E 008°20'0 0.0
2016-Aug-30 18:33N 49°04' E 008°20'0 0.0
2016-Aug-30 17:33N 49°04' E 008°20'0 0.0
2016-Aug-30 16:33N 49°04' E 008°20'0 0.1
2016-Aug-30 15:33N 49°04' E 008°20'0 0.0
2016-Aug-30 14:33N 49°04' E 008°20'0 0.0
2016-Aug-30 13:34N 49°04' E 008°20'0 0.0
2016-Aug-30 12:34N 49°04' E 008°20'0 0.0
2016-Aug-30 11:34N 49°04' E 008°20'0 0.0
2016-Aug-30 10:34N 49°04' E 008°20'0 0.0
2016-Aug-30 09:34N 49°04' E 008°20'3 2.8
2016-Aug-30 08:33N 49°02' E 008°18'16 7.8
2016-Aug-30 06:30N 48°48' E 008°05'11 0.3
2016-Aug-28 13:10N 48°58' E 008°14'2 3.8
2016-Aug-28 12:33N 48°59' E 008°17'4 3.9
2016-Aug-28 11:34N 49°03' E 008°19'4 4.1
2016-Aug-28 10:33N 49°07' E 008°22'4 4.1
2016-Aug-28 09:33N 49°11' E 008°23'4 4.3
2016-Aug-28 08:34N 49°15' E 008°24'5 4.0
2016-Aug-28 07:24N 49°18' E 008°29'3 3.3
2016-Aug-28 06:33N 49°21' E 008°29'30 4.0
2016-Aug-27 23:13N 49°51' E 008°23'4 5.4
2016-Aug-27 22:32N 49°54' E 008°21'65 3.9
2016-Aug-27 06:04N 50°41' E 007°11'8 5.1
2016-Aug-27 04:32N 50°47' E 007°03'3 0.3
2016-Aug-26 16:32N 50°50' E 006°59'4 4.4
2016-Aug-26 15:31N 50°54' E 007°02'3 3.5
2016-Aug-26 14:33N 50°56' E 006°58'1 0.0
2016-Aug-24 15:29N 50°57' E 006°59'5 5.7
2016-Aug-24 14:32N 50°52' E 007°02'9 9.1
2016-Aug-24 13:32N 50°44' E 007°07'98 5.7
2016-Aug-23 20:32N 49°22' E 008°30'10 9.9
2016-Aug-23 19:33N 49°13' E 008°23'1212.2
2016-Aug-23 18:33N 49°01' E 008°18'16 6.6
2016-Aug-23 16:08N 48°48' E 008°05'  
2016-Aug-21 06:31N 48°46' E 008°01'13 4.1
2016-Aug-21 03:20N 48°57' E 008°11'4 3.6
2016-Aug-21 02:19N 48°59' E 008°16'3 3.9
2016-Aug-21 01:33N 49°01' E 008°18'4 4.2
2016-Aug-21 00:33N 49°05' E 008°21'4 4.2
2016-Aug-20 23:34N 49°09' E 008°22'4 4.2
2016-Aug-20 22:33N 49°14' E 008°23'5 4.5
2016-Aug-20 21:33N 49°17' E 008°28'  
Track history (hours):
 
Tides and Currents Weather Stations Pressure Air Temp Water Temp Dewpoint Dewpoint Depression Visibility Wind Speed Wind Dir Waves Ship Positions

Rp Zug

Last reported at 2016-Aug-30 20:33 UTC. Time now 2016-Aug-30 20:55 UTC.
Position N 49°04' E 008°20'.

Length 110 m; draft 1.7 m.

Type: Tanker. MMSI: 269057351.

Date/timePositionNaut miles runAvg speedWind from/ knotsBaromVisibWave heightAir tempDewpointWater temp
2016-Aug-30 20:33N 49°04' E 008°20'0 0.0
2016-Aug-30 19:21N 49°04' E 008°20'0 0.0
2016-Aug-30 18:33N 49°04' E 008°20'0 0.0
2016-Aug-30 17:33N 49°04' E 008°20'0 0.0
2016-Aug-30 16:33N 49°04' E 008°20'0 0.1
2016-Aug-30 15:33N 49°04' E 008°20'0 0.0
2016-Aug-30 14:33N 49°04' E 008°20'0 0.0
2016-Aug-30 13:34N 49°04' E 008°20'0 0.0
2016-Aug-30 12:34N 49°04' E 008°20'0 0.0
2016-Aug-30 11:34N 49°04' E 008°20'0 0.0
2016-Aug-30 10:34N 49°04' E 008°20'0 0.0
2016-Aug-30 09:34N 49°04' E 008°20'3 2.8
2016-Aug-30 08:33N 49°02' E 008°18'16 7.8
2016-Aug-30 06:30N 48°48' E 008°05'11 0.3
2016-Aug-28 13:10N 48°58' E 008°14'2 3.8
2016-Aug-28 12:33N 48°59' E 008°17'4 3.9
2016-Aug-28 11:34N 49°03' E 008°19'4 4.1
2016-Aug-28 10:33N 49°07' E 008°22'4 4.1
2016-Aug-28 09:33N 49°11' E 008°23'4 4.3
2016-Aug-28 08:34N 49°15' E 008°24'5 4.0
2016-Aug-28 07:24N 49°18' E 008°29'3 3.3
2016-Aug-28 06:33N 49°21' E 008°29'30 4.0
2016-Aug-27 23:13N 49°51' E 008°23'4 5.4
2016-Aug-27 22:32N 49°54' E 008°21'65 3.9
2016-Aug-27 06:04N 50°41' E 007°11'8 5.1
2016-Aug-27 04:32N 50°47' E 007°03'3 0.3
2016-Aug-26 16:32N 50°50' E 006°59'4 4.4
2016-Aug-26 15:31N 50°54' E 007°02'3 3.5
2016-Aug-26 14:33N 50°56' E 006°58'1 0.0
2016-Aug-24 15:29N 50°57' E 006°59'5 5.7
2016-Aug-24 14:32N 50°52' E 007°02'9 9.1
2016-Aug-24 13:32N 50°44' E 007°07'98 5.7
2016-Aug-23 20:32N 49°22' E 008°30'10 9.9
2016-Aug-23 19:33N 49°13' E 008°23'1212.2
2016-Aug-23 18:33N 49°01' E 008°18'16 6.6
2016-Aug-23 16:08N 48°48' E 008°05'  
2016-Aug-21 06:31N 48°46' E 008°01'13 4.1
2016-Aug-21 03:20N 48°57' E 008°11'4 3.6
2016-Aug-21 02:19N 48°59' E 008°16'3 3.9
2016-Aug-21 01:33N 49°01' E 008°18'4 4.2
2016-Aug-21 00:33N 49°05' E 008°21'4 4.2
2016-Aug-20 23:34N 49°09' E 008°22'4 4.2
2016-Aug-20 22:33N 49°14' E 008°23'5 4.5
2016-Aug-20 21:33N 49°17' E 008°28'  

Dump ship's entire track history